Time;durP1;ratioP1;P1;durP2;ratioP2;P2;SDS_P1;SDS_P2;PMS_P1;PMS_P2;Temp;Humidity;BMP_temperature;BMP_pressure;BME280_temperature;BME280_humidity;BME280_pressure;Samples;Min_cycle;Max_cycle;Signal;HPM_P1;HPM_P2
2022/07/15 00:00:28;;;;;;;9.30;2.70;;;;;;;16.21;66.41;102175.84;5271491;28;20059;-81
2022/07/15 00:03:00;;;;;;;14.23;3.50;;;;;;;16.05;66.86;102172.47;5252969;28;20082;-81
2022/07/15 00:05:31;;;;;;;10.10;3.70;;;;;;;16.15;66.69;102165.69;5252407;28;20044;-82
2022/07/15 00:08:03;;;;;;;10.77;3.60;;;;;;;16.10;67.00;102173.03;5270150;28;20597;-81
2022/07/15 00:10:34;;;;;;;9.63;3.78;;;;;;;16.01;67.07;102169.19;5231484;28;1041441;-81
2022/07/15 00:13:06;;;;;;;13.17;3.60;;;;;;;16.02;67.13;102168.25;5271316;28;20028;-81
2022/07/15 00:15:37;;;;;;;15.73;4.40;;;;;;;15.95;67.08;102169.53;5269625;28;20029;-81
2022/07/15 00:18:08;;;;;;;9.40;3.07;;;;;;;16.07;66.96;102175.88;5270848;28;20483;-82
2022/07/15 00:20:40;;;;;;;9.87;2.43;;;;;;;15.91;67.29;102174.16;5270516;28;20406;-81
2022/07/15 00:23:11;;;;;;;10.00;3.03;;;;;;;15.63;68.39;102170.56;5251726;28;20470;-82
2022/07/15 00:25:43;;;;;;;11.83;2.63;;;;;;;15.80;67.77;102166.03;5269712;28;20031;-82
2022/07/15 00:28:15;;;;;;;9.87;3.03;;;;;;;15.58;68.47;102172.63;5271011;28;20029;-82
2022/07/15 00:30:46;;;;;;;10.60;2.97;;;;;;;15.75;67.83;102165.47;5270696;28;20060;-82
2022/07/15 00:33:17;;;;;;;9.77;2.97;;;;;;;15.76;67.89;102173.28;5264946;28;20116;-82
2022/07/15 00:35:49;;;;;;;11.20;3.07;;;;;;;15.60;68.58;102176.03;5267397;28;20029;-81
2022/07/15 00:38:21;;;;;;;9.27;2.80;;;;;;;15.44;69.14;102171.66;5265484;28;20471;-82
2022/07/15 00:40:52;;;;;;;9.33;2.57;;;;;;;15.29;69.86;102170.78;5274181;28;20510;-81
2022/07/15 00:43:23;;;;;;;10.50;3.07;;;;;;;15.33;69.07;102174.09;5252339;28;20036;-82
2022/07/15 00:45:54;;;;;;;8.80;3.03;;;;;;;15.40;69.14;102154.31;5271069;28;20028;-82
2022/07/15 00:48:26;;;;;;;13.57;3.13;;;;;;;15.57;68.44;102166.50;5270186;28;20059;-81
2022/07/15 00:50:58;;;;;;;17.20;3.77;;;;;;;15.47;68.90;102157.41;5269933;28;20025;-81
2022/07/15 00:53:32;;;;;;;17.00;3.40;;;;;;;15.42;69.10;102170.91;5270229;28;20036;-81
2022/07/15 00:56:08;;;;;;;8.90;2.60;;;;;;;15.35;69.36;102162.50;5268002;28;20032;-82
2022/07/15 00:58:41;;;;;;;11.53;3.00;;;;;;;15.28;69.86;102163.81;5244561;28;20044;-82
2022/07/15 01:01:14;;;;;;;12.30;3.40;;;;;;;15.41;69.11;102169.19;5266749;28;20036;-82
2022/07/15 01:03:47;;;;;;;9.00;2.87;;;;;;;15.44;69.10;102165.53;5248987;28;20039;-81
2022/07/15 01:06:19;;;;;;;8.03;2.63;;;;;;;15.32;69.29;102167.13;5252419;28;20295;-82
2022/07/15 01:08:52;;;;;;;10.70;3.13;;;;;;;15.31;69.65;102157.47;5251153;28;20033;-81
2022/07/15 01:11:23;;;;;;;9.93;3.73;;;;;;;15.11;70.14;102151.59;5269383;28;20036;-81
2022/07/15 01:13:54;;;;;;;8.47;2.43;;;;;;;14.92;71.21;102159.72;5270561;28;20077;-81
2022/07/15 01:16:26;;;;;;;8.13;2.40;;;;;;;15.04;70.76;102148.47;5268859;28;20930;-82
2022/07/15 01:18:57;;;;;;;8.67;2.90;;;;;;;15.08;70.83;102154.44;5269852;28;20461;-81
2022/07/15 01:21:29;;;;;;;14.40;3.10;;;;;;;15.08;70.94;102151.78;5269606;28;20104;-82
2022/07/15 01:24:00;;;;;;;13.47;3.50;;;;;;;14.98;71.06;102162.00;5270704;28;20031;-82
2022/07/15 01:26:32;;;;;;;7.40;2.50;;;;;;;15.08;70.61;102154.44;5275249;28;20375;-82
2022/07/15 01:29:03;;;;;;;9.93;2.23;;;;;;;14.95;71.37;102164.81;5273817;28;20479;-81
2022/07/15 01:31:34;;;;;;;7.90;3.10;;;;;;;14.87;71.65;102174.03;5255302;28;20115;-82
2022/07/15 01:34:05;;;;;;;9.57;2.70;;;;;;;14.69;71.80;102152.16;5275497;28;20021;-81
2022/07/15 01:36:37;;;;;;;11.60;3.50;;;;;;;14.64;73.14;102172.66;5251407;28;20690;-82
2022/07/15 01:39:08;;;;;;;10.73;2.93;;;;;;;14.56;73.81;102174.88;5273629;28;20021;-81
2022/07/15 01:41:39;;;;;;;11.17;2.80;;;;;;;14.79;72.10;102175.38;5271336;28;20093;-82
2022/07/15 01:44:11;;;;;;;14.73;3.27;;;;;;;14.69;72.89;102178.53;5255509;28;20141;-82
2022/07/15 01:46:42;;;;;;;7.83;2.30;;;;;;;14.80;72.13;102182.34;5256081;28;20060;-82
2022/07/15 01:49:25;;;;;;;7.37;2.60;;;;;;;14.71;72.65;102183.72;5273087;28;20444;-81
2022/07/15 01:51:57;;;;;;;9.47;2.73;;;;;;;14.80;72.39;102180.53;5254329;28;20060;-81
2022/07/15 01:54:30;;;;;;;7.27;2.40;;;;;;;14.57;72.89;102171.31;5272656;28;20059;-83
2022/07/15 01:57:02;;;;;;;7.60;3.03;;;;;;;14.80;72.31;102179.72;5272875;28;20112;-82
2022/07/15 01:59:33;;;;;;;5.83;2.20;;;;;;;14.81;72.23;102184.06;5274348;28;20029;-81
2022/07/15 02:02:04;;;;;;;11.63;3.30;;;;;;;14.75;72.22;102175.53;5272043;28;20526;-82
2022/07/15 02:04:36;;;;;;;14.37;3.30;;;;;;;14.76;72.45;102187.81;5267174;28;20028;-82
2022/07/15 02:07:08;;;;;;;9.03;2.53;;;;;;;14.72;72.32;102181.00;5273111;28;20082;-81
2022/07/15 02:09:39;;;;;;;8.63;3.10;;;;;;;14.52;73.54;102180.31;5271956;28;20024;-82
2022/07/15 02:12:10;;;;;;;9.20;2.50;;;;;;;14.50;73.61;102178.72;5271575;28;20048;-82
2022/07/15 02:14:41;;;;;;;8.70;3.07;;;;;;;14.60;73.21;102179.91;5273912;28;20036;-81
2022/07/15 02:17:13;;;;;;;13.23;3.27;;;;;;;14.39;74.16;102184.56;5273068;28;20029;-82
2022/07/15 02:19:44;;;;;;;9.57;2.40;;;;;;;14.58;73.24;102173.00;5273670;28;20059;-82
2022/07/15 02:22:15;;;;;;;10.80;3.60;;;;;;;14.57;73.52;102173.94;5272351;28;20107;-82
2022/07/15 02:24:47;;;;;;;14.17;3.93;;;;;;;14.48;73.67;102172.66;5273123;28;20052;-82
2022/07/15 02:27:18;;;;;;;11.07;3.27;;;;;;;14.39;74.10;102169.63;5272837;28;20489;-82
2022/07/15 02:29:49;;;;;;;8.37;2.33;;;;;;;14.37;74.19;102175.88;5272462;28;20028;-81
2022/07/15 02:32:21;;;;;;;7.07;2.33;;;;;;;14.17;74.81;102169.94;5276826;28;20029;-82
2022/07/15 02:34:52;;;;;;;7.90;3.03;;;;;;;14.01;75.37;102162.88;5274151;28;20036;-82
2022/07/15 02:37:23;;;;;;;7.87;2.23;;;;;;;14.30;74.85;102174.50;5247262;28;20020;-82
2022/07/15 02:39:54;;;;;;;8.30;2.83;;;;;;;14.15;75.73;102166.53;5272529;28;20024;-81
2022/07/15 02:42:26;;;;;;;7.47;2.50;;;;;;;14.33;74.59;102179.66;5272965;28;20035;-81
2022/07/15 02:44:57;;;;;;;8.03;2.77;;;;;;;14.24;75.08;102173.91;5271482;28;20389;-81
2022/07/15 02:47:28;;;;;;;10.97;3.50;;;;;;;14.23;75.11;102174.88;5271427;28;20119;-81
2022/07/15 02:50:00;;;;;;;9.27;2.60;;;;;;;14.22;75.22;102167.03;5260049;28;20043;-82
2022/07/15 02:52:31;;;;;;;6.67;2.73;;;;;;;13.95;76.28;102181.59;5273343;28;20024;-81
2022/07/15 02:55:04;;;;;;;12.43;2.90;;;;;;;13.86;77.02;102182.94;5269925;28;20039;-81
2022/07/15 02:57:36;;;;;;;14.13;3.50;;;;;;;13.94;76.41;102187.81;5273211;28;20069;-81
2022/07/15 03:00:14;;;;;;;9.27;2.60;;;;;;;13.64;78.28;102172.69;5272698;28;20012;-81
2022/07/15 03:02:46;;;;;;;6.97;2.60;;;;;;;13.86;76.84;102176.84;5272243;28;20017;-82
2022/07/15 03:05:18;;;;;;;7.03;3.10;;;;;;;13.62;78.79;102200.88;5271250;28;20542;-82
2022/07/15 03:07:50;;;;;;;10.13;3.23;;;;;;;13.70;78.85;102200.47;5271177;28;20050;-82
2022/07/15 03:10:22;;;;;;;10.33;3.53;;;;;;;13.98;76.97;102213.03;5271307;28;20048;-83
2022/07/15 03:12:53;;;;;;;8.83;2.80;;;;;;;14.00;77.13;102211.19;5272090;28;20029;-82
2022/07/15 03:15:25;;;;;;;15.00;3.30;;;;;;;13.84;77.90;102207.66;5270863;28;20028;-82
2022/07/15 03:17:56;;;;;;;9.83;2.63;;;;;;;14.02;76.72;102203.19;5269922;28;20036;-83
2022/07/15 03:20:28;;;;;;;9.57;2.63;;;;;;;13.45;79.66;102209.59;5271866;28;20017;-82
2022/07/15 03:22:59;;;;;;;7.70;4.20;;;;;;;13.59;80.13;102216.81;5271903;28;20081;-82
2022/07/15 03:25:30;;;;;;;5.67;2.17;;;;;;;13.70;78.83;102203.13;5271068;28;20032;-82
2022/07/15 03:28:02;;;;;;;5.83;2.50;;;;;;;13.54;79.43;102223.16;5270214;28;20036;-82
2022/07/15 03:30:33;;;;;;;12.27;3.53;;;;;;;13.70;78.91;102225.00;5271678;28;20060;-82
2022/07/15 03:33:05;;;;;;;10.17;3.87;;;;;;;13.79;78.45;102215.78;5272323;28;20052;-81
2022/07/15 03:35:36;;;;;;;13.30;3.60;;;;;;;13.76;78.70;102229.97;5272756;28;20356;-82
2022/07/15 03:38:07;;;;;;;8.60;4.10;;;;;;;13.37;80.84;102228.41;5269933;28;20635;-81
2022/07/15 03:40:38;;;;;;;12.10;3.30;;;;;;;13.35;81.03;102225.84;5271391;28;20051;-82
2022/07/15 03:43:10;;;;;;;10.90;3.40;;;;;;;13.55;80.79;102226.66;5269644;28;20036;-81
2022/07/15 03:45:41;;;;;;;12.80;3.70;;;;;;;13.62;80.33;102221.91;5271508;28;20048;-82
2022/07/15 03:48:12;;;;;;;10.83;3.83;;;;;;;13.60;80.32;102219.38;5270036;28;20040;-81
2022/07/15 03:50:43;;;;;;;18.50;3.87;;;;;;;13.75;79.75;102227.44;5271987;28;20028;-81
2022/07/15 03:53:15;;;;;;;9.97;3.87;;;;;;;13.78;79.60;102243.06;5271277;28;20025;-82
2022/07/15 03:55:46;;;;;;;12.83;4.07;;;;;;;13.77;79.55;102242.19;5270615;28;20090;-82
2022/07/15 03:58:17;;;;;;;8.13;4.17;;;;;;;13.88;79.22;102239.03;5271361;28;20025;-82
2022/07/15 04:00:49;;;;;;;9.87;3.30;;;;;;;13.59;80.60;102237.88;5271921;28;20479;-82
2022/07/15 04:03:20;;;;;;;8.50;2.83;;;;;;;13.48;82.06;102252.41;5270660;28;20035;-82
2022/07/15 04:05:51;;;;;;;10.90;3.50;;;;;;;13.79;80.60;102242.97;5251675;28;20483;-82
2022/07/15 04:08:23;;;;;;;8.03;2.87;;;;;;;13.76;80.55;102245.78;5270381;28;20762;-82
2022/07/15 04:10:56;;;;;;;11.03;2.97;;;;;;;13.60;82.65;102243.06;5271892;28;20051;-82
2022/07/15 04:13:27;;;;;;;10.97;3.40;;;;;;;13.71;81.51;102242.53;5250934;28;20025;-82
2022/07/15 04:15:59;;;;;;;11.27;4.27;;;;;;;13.71;82.09;102245.16;5257452;28;20274;-82
2022/07/15 04:18:30;;;;;;;9.40;3.30;;;;;;;13.86;81.01;102237.41;5259620;28;20121;-82
2022/07/15 04:21:02;;;;;;;14.17;3.67;;;;;;;13.93;80.75;102246.69;5270973;28;20036;-83
2022/07/15 04:23:33;;;;;;;10.87;3.50;;;;;;;13.83;81.31;102233.13;5265952;28;20117;-82
2022/07/15 04:26:05;;;;;;;9.57;4.57;;;;;;;13.96;80.59;102243.91;5271700;28;20165;-82
2022/07/15 04:28:36;;;;;;;6.50;3.57;;;;;;;14.05;80.17;102250.44;5253512;28;20028;-82
2022/07/15 04:31:07;;;;;;;9.67;3.30;;;;;;;13.87;81.66;102237.34;5270905;28;20085;-82
2022/07/15 04:33:39;;;;;;;10.40;4.20;;;;;;;14.01;80.75;102244.53;5271652;28;20042;-82
2022/07/15 04:36:10;;;;;;;14.87;4.30;;;;;;;13.96;80.83;102241.28;5271221;28;20390;-82
2022/07/15 04:38:41;;;;;;;13.43;3.80;;;;;;;14.14;79.99;102251.75;5266238;28;20537;-82
2022/07/15 04:41:12;;;;;;;12.13;4.10;;;;;;;13.98;81.54;102249.91;5253134;28;20032;-82
2022/07/15 04:43:44;;;;;;;9.33;3.53;;;;;;;14.09;80.67;102256.41;5271398;28;20033;-82
2022/07/15 04:46:15;;;;;;;8.40;3.17;;;;;;;14.18;79.99;102261.22;5252374;28;20016;-84
2022/07/15 04:51:36;;;;;;;8.80;2.90;;;;;;;14.12;80.99;102254.47;5265262;28;20055;-84
2022/07/15 04:54:07;;;;;;;10.63;3.67;;;;;;;14.11;80.20;102238.75;5259976;28;20028;-83
2022/07/15 04:56:38;;;;;;;9.90;3.53;;;;;;;14.25;79.92;102246.78;5267276;28;20351;-83
2022/07/15 04:59:10;;;;;;;9.77;3.37;;;;;;;14.13;81.19;102263.22;5271334;28;20050;-83
2022/07/15 05:01:41;;;;;;;7.80;3.53;;;;;;;14.15;80.57;102262.19;5267212;28;20025;-87
2022/07/15 05:04:12;;;;;;;14.50;3.17;;;;;;;14.26;79.66;102259.00;5269793;28;20111;-87
2022/07/15 05:06:44;;;;;;;10.50;3.13;;;;;;;14.09;80.96;102259.03;5259436;28;20033;-87
2022/07/15 05:09:15;;;;;;;14.37;3.70;;;;;;;14.06;81.20;102261.84;5265522;28;20035;-87
2022/07/15 05:11:46;;;;;;;10.57;3.23;;;;;;;14.00;81.59;102261.22;5258852;28;20064;-87
2022/07/15 05:14:18;;;;;;;11.13;4.20;;;;;;;14.06;81.33;102256.56;5267545;28;20068;-87
2022/07/15 05:16:49;;;;;;;10.60;3.53;;;;;;;14.09;80.66;102261.69;5239026;28;20036;-86
2022/07/15 05:19:21;;;;;;;12.13;3.90;;;;;;;13.96;82.62;102261.47;5251662;28;20472;-85
2022/07/15 05:21:52;;;;;;;11.90;4.13;;;;;;;14.11;80.86;102263.31;5265818;28;20039;-86
2022/07/15 05:24:23;;;;;;;12.33;3.67;;;;;;;14.09;80.89;102266.94;5249092;28;20040;-87
2022/07/15 05:26:55;;;;;;;15.30;3.80;;;;;;;14.09;80.80;102252.00;5265680;28;20036;-87
2022/07/15 05:29:26;;;;;;;12.20;3.90;;;;;;;14.01;82.42;102265.59;5263100;28;20383;-74
2022/07/15 05:31:57;;;;;;;12.43;3.43;;;;;;;14.10;80.95;102264.22;5270955;28;20032;-87
2022/07/15 05:34:29;;;;;;;15.20;3.80;;;;;;;14.09;80.90;102257.28;5272256;28;20028;-84
2022/07/15 05:37:00;;;;;;;16.53;4.57;;;;;;;14.15;80.88;102254.31;5272796;28;20044;-86
2022/07/15 05:39:31;;;;;;;17.63;4.93;;;;;;;14.23;80.72;102263.59;5267998;28;20073;-83
2022/07/15 05:42:03;;;;;;;13.53;3.57;;;;;;;14.08;82.27;102254.72;5265663;28;20024;-84
2022/07/15 05:44:34;;;;;;;12.40;4.07;;;;;;;14.17;81.22;102258.66;5266410;28;20081;-84
2022/07/15 05:47:05;;;;;;;17.37;5.17;;;;;;;14.26;80.83;102259.00;5267407;28;20085;-83
2022/07/15 05:49:36;;;;;;;11.27;3.20;;;;;;;14.25;80.33;102251.19;5246713;28;20419;-81
2022/07/15 05:52:08;;;;;;;12.40;3.33;;;;;;;14.31;80.08;102260.56;5247802;28;20368;-75
2022/07/15 05:54:39;;;;;;;17.87;3.70;;;;;;;14.26;80.75;102264.28;5249806;28;20093;-75
2022/07/15 05:57:11;;;;;;;17.00;3.10;;;;;;;14.31;80.42;102255.28;5261797;28;20395;-75
2022/07/15 05:59:43;;;;;;;7.10;2.90;;;;;;;14.36;80.22;102256.75;5265092;28;20028;-76
2022/07/15 06:02:14;;;;;;;13.40;3.30;;;;;;;14.33;80.14;102258.72;5267255;28;20060;-75
2022/07/15 06:04:45;;;;;;;8.93;3.33;;;;;;;14.35;80.34;102247.13;5262645;28;20090;-75
2022/07/15 06:07:16;;;;;;;13.93;2.73;;;;;;;14.33;81.45;102249.00;5262023;28;20045;-77
2022/07/15 06:09:50;;;;;;;10.03;3.17;;;;;;;14.34;80.55;102252.50;5261781;28;20032;-74
2022/07/15 06:12:21;;;;;;;9.13;3.42;;;;;;;14.42;80.50;102252.91;5269628;28;20036;-74
2022/07/15 06:14:53;;;;;;;10.77;2.73;;;;;;;14.50;78.97;102250.72;5269926;28;20035;-76
2022/07/15 06:17:24;;;;;;;8.60;1.93;;;;;;;14.52;79.40;102253.28;5272583;28;20047;-76
2022/07/15 06:19:55;;;;;;;15.50;2.87;;;;;;;14.59;78.98;102259.91;5266520;28;20115;-73
2022/07/15 06:22:27;;;;;;;12.17;3.37;;;;;;;14.51;79.02;102241.88;5267591;28;20032;-79
2022/07/15 06:24:58;;;;;;;9.30;2.33;;;;;;;14.60;79.67;102261.63;5264309;28;20017;-79
2022/07/15 06:27:30;;;;;;;12.83;2.87;;;;;;;14.62;80.19;102259.78;5271031;28;20064;-80
2022/07/15 06:30:01;;;;;;;11.23;2.90;;;;;;;14.69;77.78;102257.66;5263987;28;20025;-80
2022/07/15 06:32:33;;;;;;;10.13;1.97;;;;;;;14.76;78.45;102253.75;5267261;28;20519;-80
2022/07/15 06:35:05;;;;;;;12.47;2.30;;;;;;;14.79;77.39;102247.44;5259757;28;20029;-81
2022/07/15 06:37:37;;;;;;;6.37;1.97;;;;;;;14.90;76.38;102256.56;5253056;28;20021;-82
2022/07/15 06:40:09;;;;;;;10.23;2.13;;;;;;;14.92;75.12;102255.56;5250761;28;20101;-82
2022/07/15 06:42:41;;;;;;;7.13;1.77;;;;;;;14.92;75.73;102250.28;5252532;28;20028;-81
2022/07/15 06:45:12;;;;;;;9.40;2.30;;;;;;;15.07;74.86;102256.47;5252332;28;20387;-77
2022/07/15 06:47:44;;;;;;;7.57;1.90;;;;;;;15.06;75.13;102248.66;5251786;28;20586;-80
2022/07/15 06:50:15;;;;;;;13.23;2.30;;;;;;;15.09;74.51;102246.69;5252160;28;20393;-80
2022/07/15 06:52:46;;;;;;;6.73;2.20;;;;;;;15.28;71.77;102260.59;5250197;28;20476;-80
2022/07/15 06:55:17;;;;;;;5.43;1.43;;;;;;;15.41;72.17;102260.75;5252289;28;20287;-80
2022/07/15 06:57:49;;;;;;;7.60;1.47;;;;;;;15.43;71.10;102249.16;5251436;28;20430;-80
2022/07/15 07:00:20;;;;;;;10.90;2.07;;;;;;;15.59;70.58;102249.09;5252333;28;20048;-79
2022/07/15 07:02:51;;;;;;;8.37;2.40;;;;;;;15.84;69.76;102252.09;5251743;28;20114;-80
2022/07/15 07:05:23;;;;;;;6.50;1.70;;;;;;;16.02;68.48;102254.59;5251641;28;20112;-79
2022/07/15 07:07:54;;;;;;;8.27;2.43;;;;;;;16.21;67.36;102254.31;5250789;28;20059;-80
2022/07/15 07:10:26;;;;;;;6.50;1.63;;;;;;;16.55;67.68;102260.13;5250610;28;20150;-80
2022/07/15 07:12:57;;;;;;;5.80;1.53;;;;;;;16.88;67.91;102260.72;5251440;28;20024;-80
2022/07/15 07:15:28;;;;;;;6.57;1.00;;;;;;;17.11;60.41;102255.78;5252413;28;20025;-80
2022/07/15 07:18:00;;;;;;;4.27;0.87;;;;;;;16.92;60.25;102254.31;5251171;28;20871;-79
2022/07/15 07:20:32;;;;;;;4.40;1.40;;;;;;;17.34;59.31;102253.41;5251508;28;20045;-79
2022/07/15 07:23:03;;;;;;;12.07;1.50;;;;;;;17.76;58.30;102263.00;5249683;28;20480;-79
2022/07/15 07:25:34;;;;;;;4.23;1.10;;;;;;;18.43;56.04;102260.25;5251742;28;20025;-79
2022/07/15 07:28:06;;;;;;;8.57;1.73;;;;;;;18.79;54.30;102261.22;5251328;28;20036;-79
2022/07/15 07:30:37;;;;;;;7.33;1.10;;;;;;;19.52;53.14;102263.00;5233324;28;20067;-79
2022/07/15 07:33:09;;;;;;;4.87;0.90;;;;;;;19.81;53.09;102262.56;5252251;28;20040;-80
2022/07/15 07:35:40;;;;;;;4.90;1.10;;;;;;;20.22;51.00;102266.59;5255467;28;20017;-79
2022/07/15 07:38:11;;;;;;;4.10;1.25;;;;;;;20.87;49.48;102263.25;5249934;28;20091;-79
2022/07/15 07:40:43;;;;;;;7.22;1.90;;;;;;;21.25;48.18;102272.59;5232884;28;20415;-80
2022/07/15 07:43:18;;;;;;;8.75;1.45;;;;;;;21.70;48.08;102275.97;5251478;28;20035;-79
2022/07/15 07:45:50;;;;;;;4.80;0.85;;;;;;;22.35;45.26;102268.72;5251388;28;20033;-79
2022/07/15 07:48:21;;;;;;;6.00;1.25;;;;;;;22.48;44.05;102268.47;5250298;28;20039;-79
2022/07/15 07:50:53;;;;;;;6.28;1.15;;;;;;;22.70;43.92;102282.59;5251220;28;20082;-79
2022/07/15 07:53:24;;;;;;;4.00;0.95;;;;;;;23.51;42.27;102280.66;5249902;28;20029;-79
2022/07/15 07:55:56;;;;;;;4.63;1.30;;;;;;;23.70;41.70;102278.97;5250528;28;20057;-79
2022/07/15 07:58:27;;;;;;;4.38;1.40;;;;;;;23.93;40.71;102275.91;5233399;28;20488;-80
2022/07/15 08:00:59;;;;;;;5.25;1.73;;;;;;;24.07;39.92;102274.59;5260220;28;20070;-80
2022/07/15 08:03:30;;;;;;;5.28;1.40;;;;;;;24.67;38.69;102271.63;5272056;28;20033;-79
2022/07/15 08:06:01;;;;;;;6.35;0.98;;;;;;;25.08;38.61;102273.91;5271345;28;20115;-79
2022/07/15 08:08:33;;;;;;;10.00;1.83;;;;;;;25.13;37.61;102275.09;5270560;28;20094;-80
2022/07/15 08:11:04;;;;;;;5.07;1.50;;;;;;;25.50;37.03;102275.06;5261443;28;20494;-80
2022/07/15 08:13:35;;;;;;;6.65;1.10;;;;;;;25.42;36.53;102277.66;5270807;28;20028;-78
2022/07/15 08:16:07;;;;;;;3.05;1.08;;;;;;;26.04;34.85;102271.34;5271464;28;20475;-79
2022/07/15 08:18:38;;;;;;;4.13;1.20;;;;;;;25.36;34.20;102282.66;5270380;28;20473;-79
2022/07/15 08:21:09;;;;;;;7.65;1.52;;;;;;;25.44;35.08;102281.88;5253224;28;20028;-79
2022/07/15 08:23:41;;;;;;;4.72;1.27;;;;;;;25.74;35.33;102281.63;5269624;28;20021;-79
2022/07/15 08:26:17;;;;;;;5.97;1.00;;;;;;;26.06;35.25;102280.09;5271221;28;20426;-79
2022/07/15 08:28:50;;;;;;;5.25;1.23;;;;;;;26.39;34.67;102281.25;5269651;28;20025;-78
2022/07/15 08:31:22;;;;;;;5.75;1.42;;;;;;;27.13;34.09;102274.31;5232138;28;20068;-80
2022/07/15 08:33:53;;;;;;;6.00;1.20;;;;;;;27.50;32.96;102283.72;5250163;28;20429;-79
2022/07/15 08:36:25;;;;;;;7.70;1.60;;;;;;;27.74;32.51;102282.00;5249190;28;20108;-79
2022/07/15 08:38:56;;;;;;;3.03;1.02;;;;;;;28.05;31.37;102285.78;5230873;28;20448;-76
2022/07/15 08:41:27;;;;;;;9.18;1.20;;;;;;;27.74;31.15;102284.69;5253485;28;20036;-79
2022/07/15 08:43:59;;;;;;;5.53;1.00;;;;;;;27.92;30.01;102270.19;5250932;28;20022;-80
2022/07/15 08:46:32;;;;;;;4.40;1.23;;;;;;;28.14;31.10;102275.81;5249914;28;20020;-80
2022/07/15 08:49:08;;;;;;;4.07;1.25;;;;;;;28.26;30.78;102277.09;5249237;28;20052;-78
2022/07/15 08:51:43;;;;;;;6.05;1.10;;;;;;;28.61;30.09;102271.38;5250420;28;20064;-79
2022/07/15 08:54:16;;;;;;;5.60;1.13;;;;;;;28.88;29.21;102271.00;5247971;28;20025;-79
2022/07/15 08:56:47;;;;;;;3.45;0.90;;;;;;;29.74;28.22;102279.03;5249822;28;20025;-79
2022/07/15 08:59:18;;;;;;;3.83;0.90;;;;;;;29.76;26.68;102274.28;5249217;28;20025;-80
2022/07/15 09:01:50;;;;;;;4.75;1.48;;;;;;;29.88;27.12;102282.75;5249731;28;20108;-80
2022/07/15 09:04:21;;;;;;;4.22;1.25;;;;;;;30.63;26.05;102268.25;5249554;28;20035;-79
2022/07/15 09:06:52;;;;;;;2.55;0.88;;;;;;;30.50;25.88;102272.50;5262600;28;20028;-81
2022/07/15 09:09:33;;;;;;;1.48;0.70;;;;;;;30.37;26.31;102273.19;5260879;28;20049;-81
2022/07/15 09:12:08;;;;;;;3.10;0.70;;;;;;;30.59;26.00;102264.25;5241742;28;20047;-81
2022/07/15 09:14:42;;;;;;;3.63;0.98;;;;;;;29.82;27.02;102270.84;5262506;28;20025;-81
2022/07/15 09:17:13;;;;;;;5.63;0.90;;;;;;;31.27;25.06;102265.69;5257928;28;20086;-80
2022/07/15 09:20:09;;;;;;;2.47;0.73;;;;;;;31.91;25.17;102256.72;5259853;28;20033;-80
2022/07/15 09:22:57;;;;;;;4.28;1.50;;;;;;;32.35;24.69;102252.72;5258000;28;20103;-80
2022/07/15 09:25:29;;;;;;;3.70;0.90;;;;;;;31.12;24.82;102247.69;5260555;28;20032;-80
2022/07/15 09:28:04;;;;;;;4.90;1.15;;;;;;;31.59;24.27;102262.59;5257748;28;20021;-80
2022/07/15 09:33:38;;;;;;;4.30;1.00;;;;;;;32.47;23.18;102265.63;5267016;28;20032;-81
2022/07/15 09:36:18;;;;;;;4.60;0.82;;;;;;;32.47;23.06;102277.34;5248785;28;20024;-82
2022/07/15 09:39:01;;;;;;;4.15;0.90;;;;;;;32.46;24.55;102272.13;5257910;28;20021;-82
2022/07/15 09:41:38;;;;;;;2.92;0.98;;;;;;;31.27;23.71;102258.41;5269946;28;20024;-83
2022/07/15 09:44:12;;;;;;;3.53;1.00;;;;;;;31.72;23.33;102267.22;5270341;28;20479;-82
2022/07/15 09:46:56;;;;;;;3.17;0.85;;;;;;;32.99;23.37;102265.06;5273650;28;20074;-82
2022/07/15 09:49:27;;;;;;;3.22;1.05;;;;;;;33.11;21.52;102278.06;5274449;28;20086;-82
2022/07/15 09:52:02;;;;;;;4.43;1.02;;;;;;;33.68;21.42;102261.25;5237755;28;20483;-81
2022/07/15 09:54:37;;;;;;;3.75;1.35;;;;;;;33.40;22.69;102265.06;5252408;28;20025;-81
2022/07/15 09:57:15;;;;;;;3.25;0.80;;;;;;;32.49;23.17;102260.84;5251415;28;20418;-82
2022/07/15 09:59:48;;;;;;;5.03;1.15;;;;;;;31.75;23.39;102267.66;5235703;28;20283;-82
2022/07/15 10:02:19;;;;;;;2.88;0.90;;;;;;;33.43;21.86;102253.75;5234510;28;20082;-82
2022/07/15 10:04:51;;;;;;;3.60;0.85;;;;;;;34.14;21.41;102250.38;5235610;28;20561;-82
2022/07/15 10:07:24;;;;;;;4.15;1.20;;;;;;;34.33;22.06;102256.78;5252049;28;20025;-81
2022/07/15 10:09:57;;;;;;;5.50;1.02;;;;;;;33.22;22.81;102255.69;5252415;28;20036;-81
2022/07/15 10:12:42;;;;;;;2.72;0.80;;;;;;;35.09;21.85;102249.69;5253099;28;20068;-81
2022/07/15 10:15:33;;;;;;;3.53;0.88;;;;;;;33.65;23.06;102256.25;5234557;28;20043;-81
2022/07/15 10:18:36;;;;;;;4.07;0.85;;;;;;;33.76;22.87;102239.28;5252661;28;20025;-82
2022/07/15 10:21:34;;;;;;;4.65;1.30;;;;;;;33.63;22.62;102244.72;5251547;28;20112;-82
2022/07/15 10:24:21;;;;;;;3.65;1.25;;;;;;;33.28;22.23;102235.88;5252005;28;20029;-82
2022/07/15 10:27:02;;;;;;;5.35;1.27;;;;;;;34.26;22.18;102237.78;5252561;28;20017;-83
2022/07/15 10:29:33;;;;;;;5.18;1.15;;;;;;;32.21;22.74;102232.03;5252089;28;20029;-85
2022/07/15 10:32:04;;;;;;;4.53;0.63;;;;;;;32.33;22.54;102219.53;5234892;28;20614;-86
2022/07/15 10:34:38;;;;;;;2.95;0.70;;;;;;;32.40;22.68;102234.97;5260544;28;20450;-86
2022/07/15 10:37:11;;;;;;;2.75;0.80;;;;;;;30.98;24.40;102230.50;5262610;28;20028;-87
2022/07/15 10:39:45;;;;;;;2.92;0.90;;;;;;;30.78;24.49;102225.78;5268437;28;20021;-86
2022/07/15 10:42:18;;;;;;;4.47;0.80;;;;;;;30.74;24.52;102221.78;5244160;28;20103;-85
2022/07/15 10:44:58;;;;;;;3.97;1.20;;;;;;;31.06;24.87;102226.00;5263251;28;20028;-83
2022/07/15 10:47:30;;;;;;;4.25;1.10;;;;;;;30.37;25.15;102221.84;5262119;28;20376;-85
2022/07/15 10:50:34;;;;;;;3.22;1.10;;;;;;;30.88;25.32;102214.63;5243545;28;20035;-84
2022/07/15 10:53:17;;;;;;;2.28;0.70;;;;;;;30.86;24.28;102214.00;5262761;28;20031;-85
2022/07/15 10:55:48;;;;;;;3.17;0.77;;;;;;;30.43;23.94;102206.72;5253733;28;20550;-83
2022/07/15 10:58:20;;;;;;;3.28;1.00;;;;;;;29.92;25.34;102190.38;5251947;28;20112;-85
2022/07/15 11:00:52;;;;;;;4.10;0.73;;;;;;;30.46;24.21;102206.34;5252148;28;20550;-74
2022/07/15 11:03:23;;;;;;;5.70;1.10;;;;;;;30.93;23.89;102210.53;5253362;28;20074;-77
2022/07/15 11:05:56;;;;;;;5.20;0.82;;;;;;;30.15;25.15;102194.78;5259269;28;20029;-80
2022/07/15 11:08:33;;;;;;;1.90;0.52;;;;;;;30.22;24.43;102191.34;5259991;28;20029;-75
2022/07/15 11:11:14;;;;;;;5.03;0.75;;;;;;;30.54;24.80;102203.53;5263812;28;20033;-74
2022/07/15 11:13:47;;;;;;;4.68;0.70;;;;;;;29.82;25.12;102196.09;5261101;28;20029;-76
2022/07/15 11:16:21;;;;;;;2.60;0.70;;;;;;;29.99;25.75;102201.25;5256792;28;20087;-75
2022/07/15 11:18:57;;;;;;;3.65;0.95;;;;;;;29.39;26.11;102196.75;5268607;28;20032;-78
2022/07/15 11:21:28;;;;;;;3.83;0.80;;;;;;;30.40;25.16;102197.16;5266906;28;20028;-75
2022/07/15 11:24:00;;;;;;;2.50;0.70;;;;;;;29.62;25.52;102195.81;5268257;28;20016;-82
2022/07/15 11:26:48;;;;;;;3.75;0.82;;;;;;;30.43;25.77;102187.81;5267357;28;20083;-81
2022/07/15 11:29:19;;;;;;;4.38;1.00;;;;;;;30.04;25.08;102198.00;5264391;28;20029;-77
2022/07/15 11:31:51;;;;;;;2.72;0.60;;;;;;;30.50;25.19;102185.16;5266296;28;20027;-77
2022/07/15 11:34:23;;;;;;;6.70;1.10;;;;;;;29.49;26.35;102188.38;5272490;28;20128;-81
2022/07/15 11:36:58;;;;;;;5.10;1.03;;;;;;;29.57;25.99;102182.00;5270445;28;20035;-81
2022/07/15 11:39:30;;;;;;;1.77;0.80;;;;;;;29.95;25.28;102189.19;5271533;28;20037;-81
2022/07/15 11:44:51;;;;;;;4.10;0.88;;;;;;;29.74;26.35;102187.25;5264962;28;20040;-78
2022/07/15 11:47:23;;;;;;;3.15;0.88;;;;;;;29.56;26.40;102185.75;5264432;28;20021;-75
2022/07/15 11:49:59;;;;;;;2.75;0.77;;;;;;;30.06;25.93;102175.16;5261379;28;20119;-77
2022/07/15 11:52:30;;;;;;;3.75;0.73;;;;;;;29.06;26.67;102180.91;5245912;28;20074;-79
2022/07/15 11:55:05;;;;;;;4.18;0.85;;;;;;;29.51;25.68;102169.28;5268118;28;20041;-78